sensor_id;sensor_type;location;lat;lon;timestamp;temperature;humidity
44277;DHT22;29973;43.742;1.236;2024-01-15T00:01:56;7.90;99.90
44277;DHT22;29973;43.742;1.236;2024-01-15T00:04:21;8.10;99.90
44277;DHT22;29973;43.742;1.236;2024-01-15T00:06:47;8.10;99.90
44277;DHT22;29973;43.742;1.236;2024-01-15T00:09:13;8.20;99.90
44277;DHT22;29973;43.742;1.236;2024-01-15T00:11:38;8.10;99.90
44277;DHT22;29973;43.742;1.236;2024-01-15T00:14:05;7.80;99.90
44277;DHT22;29973;43.742;1.236;2024-01-15T00:16:34;7.60;99.90
44277;DHT22;29973;43.742;1.236;2024-01-15T00:19:00;7.50;99.90
44277;DHT22;29973;43.742;1.236;2024-01-15T00:21:25;7.40;99.90
44277;DHT22;29973;43.742;1.236;2024-01-15T00:23:51;7.30;99.90
44277;DHT22;29973;43.742;1.236;2024-01-15T00:26:16;7.20;99.90
44277;DHT22;29973;43.742;1.236;2024-01-15T00:28:42;7.00;99.90
44277;DHT22;29973;43.742;1.236;2024-01-15T00:31:08;6.90;99.90
44277;DHT22;29973;43.742;1.236;2024-01-15T00:33:33;6.90;99.90
44277;DHT22;29973;43.742;1.236;2024-01-15T00:35:59;6.70;99.90
44277;DHT22;29973;43.742;1.236;2024-01-15T00:38:25;6.80;99.90
44277;DHT22;29973;43.742;1.236;2024-01-15T00:40:50;6.70;99.90
44277;DHT22;29973;43.742;1.236;2024-01-15T00:43:16;6.90;99.90
44277;DHT22;29973;43.742;1.236;2024-01-15T00:45:44;7.10;99.90
44277;DHT22;29973;43.742;1.236;2024-01-15T00:48:10;7.10;99.90
44277;DHT22;29973;43.742;1.236;2024-01-15T00:50:36;7.10;99.90
44277;DHT22;29973;43.742;1.236;2024-01-15T00:53:01;7.10;99.90
44277;DHT22;29973;43.742;1.236;2024-01-15T00:55:28;7.10;99.90
44277;DHT22;29973;43.742;1.236;2024-01-15T00:57:54;7.20;99.90
44277;DHT22;29973;43.742;1.236;2024-01-15T01:00:20;7.30;99.90
44277;DHT22;29973;43.742;1.236;2024-01-15T01:02:46;7.70;99.90
44277;DHT22;29973;43.742;1.236;2024-01-15T01:05:11;7.80;99.90
44277;DHT22;29973;43.742;1.236;2024-01-15T01:07:38;7.70;99.90
44277;DHT22;29973;43.742;1.236;2024-01-15T01:10:04;7.50;99.90
44277;DHT22;29973;43.742;1.236;2024-01-15T01:12:29;7.40;99.90
44277;DHT22;29973;43.742;1.236;2024-01-15T01:14:55;7.50;99.90
44277;DHT22;29973;43.742;1.236;2024-01-15T01:17:22;7.40;99.90
44277;DHT22;29973;43.742;1.236;2024-01-15T01:19:49;7.40;99.90
44277;DHT22;29973;43.742;1.236;2024-01-15T01:22:15;7.60;99.90
44277;DHT22;29973;43.742;1.236;2024-01-15T01:24:40;7.60;99.90
44277;DHT22;29973;43.742;1.236;2024-01-15T01:27:06;7.70;99.90
44277;DHT22;29973;43.742;1.236;2024-01-15T01:29:32;7.80;99.90
44277;DHT22;29973;43.742;1.236;2024-01-15T01:31:58;7.80;99.90
44277;DHT22;29973;43.742;1.236;2024-01-15T01:34:23;7.70;99.90
44277;DHT22;29973;43.742;1.236;2024-01-15T01:36:50;7.60;99.90
44277;DHT22;29973;43.742;1.236;2024-01-15T01:39:15;7.40;99.90
44277;DHT22;29973;43.742;1.236;2024-01-15T01:41:41;7.40;99.90
44277;DHT22;29973;43.742;1.236;2024-01-15T01:44:07;7.30;99.90
44277;DHT22;29973;43.742;1.236;2024-01-15T01:46:33;7.20;99.90
44277;DHT22;29973;43.742;1.236;2024-01-15T01:48:59;7.30;99.90
44277;DHT22;29973;43.742;1.236;2024-01-15T01:51:30;7.30;99.90
44277;DHT22;29973;43.742;1.236;2024-01-15T01:53:56;7.40;99.90
44277;DHT22;29973;43.742;1.236;2024-01-15T01:56:22;7.40;99.90
44277;DHT22;29973;43.742;1.236;2024-01-15T01:58:48;7.40;99.90
44277;DHT22;29973;43.742;1.236;2024-01-15T02:01:15;7.50;99.90
44277;DHT22;29973;43.742;1.236;2024-01-15T02:03:41;7.60;99.90
44277;DHT22;29973;43.742;1.236;2024-01-15T02:06:08;7.60;99.90
44277;DHT22;29973;43.742;1.236;2024-01-15T02:08:34;7.70;99.90
44277;DHT22;29973;43.742;1.236;2024-01-15T02:11:00;7.60;99.90
44277;DHT22;29973;43.742;1.236;2024-01-15T02:13:26;7.60;99.90
44277;DHT22;29973;43.742;1.236;2024-01-15T02:15:52;7.60;99.90
44277;DHT22;29973;43.742;1.236;2024-01-15T02:18:17;7.60;99.90
44277;DHT22;29973;43.742;1.236;2024-01-15T02:20:43;7.70;99.90
44277;DHT22;29973;43.742;1.236;2024-01-15T02:23:14;7.80;99.90
44277;DHT22;29973;43.742;1.236;2024-01-15T02:25:41;8.10;99.90
44277;DHT22;29973;43.742;1.236;2024-01-15T02:28:11;8.50;99.90
44277;DHT22;29973;43.742;1.236;2024-01-15T02:30:38;8.60;99.90
44277;DHT22;29973;43.742;1.236;2024-01-15T02:33:10;8.50;99.90
44277;DHT22;29973;43.742;1.236;2024-01-15T02:35:36;8.30;99.90
44277;DHT22;29973;43.742;1.236;2024-01-15T02:38:03;8.10;99.90
44277;DHT22;29973;43.742;1.236;2024-01-15T02:40:30;8.10;99.90
44277;DHT22;29973;43.742;1.236;2024-01-15T02:42:57;8.10;99.90
44277;DHT22;29973;43.742;1.236;2024-01-15T02:45:27;8.20;99.90
44277;DHT22;29973;43.742;1.236;2024-01-15T02:47:52;8.10;99.90
44277;DHT22;29973;43.742;1.236;2024-01-15T02:50:18;8.10;99.90
44277;DHT22;29973;43.742;1.236;2024-01-15T02:52:43;8.00;99.90
44277;DHT22;29973;43.742;1.236;2024-01-15T02:55:09;7.90;99.90
44277;DHT22;29973;43.742;1.236;2024-01-15T02:57:35;7.90;99.90
44277;DHT22;29973;43.742;1.236;2024-01-15T03:00:00;7.90;99.90
44277;DHT22;29973;43.742;1.236;2024-01-15T03:02:26;7.80;99.90
44277;DHT22;29973;43.742;1.236;2024-01-15T03:04:52;7.70;99.90
44277;DHT22;29973;43.742;1.236;2024-01-15T03:07:18;7.70;99.90
44277;DHT22;29973;43.742;1.236;2024-01-15T03:09:43;7.70;99.90
44277;DHT22;29973;43.742;1.236;2024-01-15T03:12:09;7.70;99.90
44277;DHT22;29973;43.742;1.236;2024-01-15T03:14:36;8.00;99.90
44277;DHT22;29973;43.742;1.236;2024-01-15T03:17:02;8.20;99.90
44277;DHT22;29973;43.742;1.236;2024-01-15T03:19:27;8.20;99.90
44277;DHT22;29973;43.742;1.236;2024-01-15T03:21:53;8.00;99.90
44277;DHT22;29973;43.742;1.236;2024-01-15T03:24:20;7.70;99.90
44277;DHT22;29973;43.742;1.236;2024-01-15T03:26:46;7.50;99.90
44277;DHT22;29973;43.742;1.236;2024-01-15T03:29:11;7.50;99.90
44277;DHT22;29973;43.742;1.236;2024-01-15T03:31:37;7.50;99.90
44277;DHT22;29973;43.742;1.236;2024-01-15T03:34:03;7.60;99.90
44277;DHT22;29973;43.742;1.236;2024-01-15T03:36:29;7.70;99.90
44277;DHT22;29973;43.742;1.236;2024-01-15T03:38:55;8.00;99.90
44277;DHT22;29973;43.742;1.236;2024-01-15T03:41:20;8.00;99.90
44277;DHT22;29973;43.742;1.236;2024-01-15T03:43:46;7.80;99.90
44277;DHT22;29973;43.742;1.236;2024-01-15T03:46:12;7.80;99.90
44277;DHT22;29973;43.742;1.236;2024-01-15T03:48:38;8.00;99.90
44277;DHT22;29973;43.742;1.236;2024-01-15T03:51:04;8.00;99.90
44277;DHT22;29973;43.742;1.236;2024-01-15T03:53:29;8.10;99.90
44277;DHT22;29973;43.742;1.236;2024-01-15T03:55:55;8.10;99.90
44277;DHT22;29973;43.742;1.236;2024-01-15T03:58:21;8.10;99.90
44277;DHT22;29973;43.742;1.236;2024-01-15T04:00:46;8.00;99.90
44277;DHT22;29973;43.742;1.236;2024-01-15T04:03:12;7.90;99.90
44277;DHT22;29973;43.742;1.236;2024-01-15T04:05:38;7.80;99.90
44277;DHT22;29973;43.742;1.236;2024-01-15T04:08:04;7.70;99.90
44277;DHT22;29973;43.742;1.236;2024-01-15T04:10:30;7.60;99.90
44277;DHT22;29973;43.742;1.236;2024-01-15T04:12:56;7.60;99.90
44277;DHT22;29973;43.742;1.236;2024-01-15T04:15:22;7.60;99.90
44277;DHT22;29973;43.742;1.236;2024-01-15T04:17:47;7.60;99.90
44277;DHT22;29973;43.742;1.236;2024-01-15T04:20:13;7.60;99.90
44277;DHT22;29973;43.742;1.236;2024-01-15T04:22:39;7.70;99.90
44277;DHT22;29973;43.742;1.236;2024-01-15T04:25:05;7.70;99.90
44277;DHT22;29973;43.742;1.236;2024-01-15T04:27:31;7.80;99.90
44277;DHT22;29973;43.742;1.236;2024-01-15T04:29:56;7.70;99.90
44277;DHT22;29973;43.742;1.236;2024-01-15T04:32:22;7.70;99.90
44277;DHT22;29973;43.742;1.236;2024-01-15T04:34:47;7.70;99.90
44277;DHT22;29973;43.742;1.236;2024-01-15T04:37:13;7.70;99.90
44277;DHT22;29973;43.742;1.236;2024-01-15T04:39:39;7.80;99.90
44277;DHT22;29973;43.742;1.236;2024-01-15T04:42:05;7.80;99.90
44277;DHT22;29973;43.742;1.236;2024-01-15T04:44:31;7.80;99.90
44277;DHT22;29973;43.742;1.236;2024-01-15T04:46:56;7.80;99.90
44277;DHT22;29973;43.742;1.236;2024-01-15T04:49:22;7.80;99.90
44277;DHT22;29973;43.742;1.236;2024-01-15T04:51:48;7.70;99.90
44277;DHT22;29973;43.742;1.236;2024-01-15T04:54:13;7.70;99.90
44277;DHT22;29973;43.742;1.236;2024-01-15T04:56:43;7.60;99.90
44277;DHT22;29973;43.742;1.236;2024-01-15T04:59:09;7.60;99.90
44277;DHT22;29973;43.742;1.236;2024-01-15T05:01:36;7.70;99.90
44277;DHT22;29973;43.742;1.236;2024-01-15T05:04:02;7.70;99.90
44277;DHT22;29973;43.742;1.236;2024-01-15T05:06:28;7.80;99.90
44277;DHT22;29973;43.742;1.236;2024-01-15T05:08:53;7.80;99.90
44277;DHT22;29973;43.742;1.236;2024-01-15T05:11:19;7.80;99.90
44277;DHT22;29973;43.742;1.236;2024-01-15T05:13:45;7.80;99.90
44277;DHT22;29973;43.742;1.236;2024-01-15T05:16:10;7.80;99.90
44277;DHT22;29973;43.742;1.236;2024-01-15T05:18:36;7.70;99.90
44277;DHT22;29973;43.742;1.236;2024-01-15T05:21:05;7.70;99.90
44277;DHT22;29973;43.742;1.236;2024-01-15T05:23:34;7.70;99.90
44277;DHT22;29973;43.742;1.236;2024-01-15T05:26:00;7.80;99.90
44277;DHT22;29973;43.742;1.236;2024-01-15T05:28:25;7.80;99.90
44277;DHT22;29973;43.742;1.236;2024-01-15T05:30:51;7.80;99.90
44277;DHT22;29973;43.742;1.236;2024-01-15T05:33:17;7.90;99.90
44277;DHT22;29973;43.742;1.236;2024-01-15T05:35:43;7.90;99.90
44277;DHT22;29973;43.742;1.236;2024-01-15T05:38:09;7.80;99.90
44277;DHT22;29973;43.742;1.236;2024-01-15T05:40:34;7.80;99.90
44277;DHT22;29973;43.742;1.236;2024-01-15T05:43:00;7.80;99.90
44277;DHT22;29973;43.742;1.236;2024-01-15T05:45:30;7.80;99.90
44277;DHT22;29973;43.742;1.236;2024-01-15T05:47:56;7.80;99.90
44277;DHT22;29973;43.742;1.236;2024-01-15T05:50:22;7.80;99.90
44277;DHT22;29973;43.742;1.236;2024-01-15T05:52:48;7.70;99.90
44277;DHT22;29973;43.742;1.236;2024-01-15T05:55:14;7.70;99.90
44277;DHT22;29973;43.742;1.236;2024-01-15T05:57:39;7.70;99.90
44277;DHT22;29973;43.742;1.236;2024-01-15T06:00:05;7.80;99.90
44277;DHT22;29973;43.742;1.236;2024-01-15T06:02:32;7.80;99.90
44277;DHT22;29973;43.742;1.236;2024-01-15T06:04:59;7.80;99.90
44277;DHT22;29973;43.742;1.236;2024-01-15T06:07:24;7.80;99.90
44277;DHT22;29973;43.742;1.236;2024-01-15T06:09:50;7.90;99.90
44277;DHT22;29973;43.742;1.236;2024-01-15T06:12:16;7.90;99.90
44277;DHT22;29973;43.742;1.236;2024-01-15T06:14:41;7.90;99.90
44277;DHT22;29973;43.742;1.236;2024-01-15T06:17:08;8.00;99.90
44277;DHT22;29973;43.742;1.236;2024-01-15T06:19:33;7.90;99.90
44277;DHT22;29973;43.742;1.236;2024-01-15T06:21:59;7.90;99.90
44277;DHT22;29973;43.742;1.236;2024-01-15T06:24:25;8.00;99.90
44277;DHT22;29973;43.742;1.236;2024-01-15T06:26:50;8.00;99.90
44277;DHT22;29973;43.742;1.236;2024-01-15T06:29:16;8.00;99.90
44277;DHT22;29973;43.742;1.236;2024-01-15T06:31:42;8.00;99.90
44277;DHT22;29973;43.742;1.236;2024-01-15T06:34:08;8.00;99.90
44277;DHT22;29973;43.742;1.236;2024-01-15T06:36:33;8.00;99.90
44277;DHT22;29973;43.742;1.236;2024-01-15T06:38:59;8.00;99.90
44277;DHT22;29973;43.742;1.236;2024-01-15T06:41:25;8.00;99.90
44277;DHT22;29973;43.742;1.236;2024-01-15T06:43:51;8.00;99.90
44277;DHT22;29973;43.742;1.236;2024-01-15T06:46:23;7.90;99.90
44277;DHT22;29973;43.742;1.236;2024-01-15T06:48:49;7.90;99.90
44277;DHT22;29973;43.742;1.236;2024-01-15T06:51:16;7.90;99.90
44277;DHT22;29973;43.742;1.236;2024-01-15T06:53:41;7.90;99.90
44277;DHT22;29973;43.742;1.236;2024-01-15T06:56:08;8.00;99.90
44277;DHT22;29973;43.742;1.236;2024-01-15T06:58:34;8.10;99.90
44277;DHT22;29973;43.742;1.236;2024-01-15T07:00:59;8.10;99.90
44277;DHT22;29973;43.742;1.236;2024-01-15T07:03:25;8.10;99.90
44277;DHT22;29973;43.742;1.236;2024-01-15T07:05:51;8.10;99.90
44277;DHT22;29973;43.742;1.236;2024-01-15T07:08:16;8.00;99.90
44277;DHT22;29973;43.742;1.236;2024-01-15T07:10:42;8.00;99.90
44277;DHT22;29973;43.742;1.236;2024-01-15T07:13:08;8.00;99.90
44277;DHT22;29973;43.742;1.236;2024-01-15T07:15:34;8.10;99.90
44277;DHT22;29973;43.742;1.236;2024-01-15T07:18:00;8.10;99.90
44277;DHT22;29973;43.742;1.236;2024-01-15T07:20:25;8.10;99.90
44277;DHT22;29973;43.742;1.236;2024-01-15T07:22:51;8.20;99.90
44277;DHT22;29973;43.742;1.236;2024-01-15T07:25:17;8.20;99.90
44277;DHT22;29973;43.742;1.236;2024-01-15T07:27:42;8.10;99.90
44277;DHT22;29973;43.742;1.236;2024-01-15T07:30:11;8.10;99.90
44277;DHT22;29973;43.742;1.236;2024-01-15T07:32:37;8.00;99.90
44277;DHT22;29973;43.742;1.236;2024-01-15T07:35:03;8.00;99.90
44277;DHT22;29973;43.742;1.236;2024-01-15T07:37:29;8.00;99.90
44277;DHT22;29973;43.742;1.236;2024-01-15T07:39:55;8.00;99.90
44277;DHT22;29973;43.742;1.236;2024-01-15T07:42:20;8.10;99.90
44277;DHT22;29973;43.742;1.236;2024-01-15T07:44:46;8.10;99.90
44277;DHT22;29973;43.742;1.236;2024-01-15T07:47:12;8.00;99.90
44277;DHT22;29973;43.742;1.236;2024-01-15T07:49:38;8.00;99.90
44277;DHT22;29973;43.742;1.236;2024-01-15T07:52:04;8.10;99.90
44277;DHT22;29973;43.742;1.236;2024-01-15T07:54:31;8.10;99.90
44277;DHT22;29973;43.742;1.236;2024-01-15T07:57:00;8.10;99.90
44277;DHT22;29973;43.742;1.236;2024-01-15T07:59:27;8.20;99.90
44277;DHT22;29973;43.742;1.236;2024-01-15T08:01:53;8.20;99.90
44277;DHT22;29973;43.742;1.236;2024-01-15T08:04:19;8.20;99.90
44277;DHT22;29973;43.742;1.236;2024-01-15T08:06:45;8.20;99.90
44277;DHT22;29973;43.742;1.236;2024-01-15T08:09:11;8.20;99.90
44277;DHT22;29973;43.742;1.236;2024-01-15T08:11:41;8.20;99.90
44277;DHT22;29973;43.742;1.236;2024-01-15T08:14:08;8.20;99.90
44277;DHT22;29973;43.742;1.236;2024-01-15T08:16:34;8.20;99.90
44277;DHT22;29973;43.742;1.236;2024-01-15T08:19:00;8.20;99.90
44277;DHT22;29973;43.742;1.236;2024-01-15T08:21:25;8.20;99.90
44277;DHT22;29973;43.742;1.236;2024-01-15T08:23:53;8.30;99.90
44277;DHT22;29973;43.742;1.236;2024-01-15T08:26:19;8.40;99.90
44277;DHT22;29973;43.742;1.236;2024-01-15T08:28:45;8.40;99.90
44277;DHT22;29973;43.742;1.236;2024-01-15T08:31:11;8.40;99.90
44277;DHT22;29973;43.742;1.236;2024-01-15T08:33:37;8.40;99.90
44277;DHT22;29973;43.742;1.236;2024-01-15T08:36:03;8.30;99.90
44277;DHT22;29973;43.742;1.236;2024-01-15T08:38:29;8.30;99.90
44277;DHT22;29973;43.742;1.236;2024-01-15T08:40:55;8.30;99.90
44277;DHT22;29973;43.742;1.236;2024-01-15T08:43:24;8.30;99.90
44277;DHT22;29973;43.742;1.236;2024-01-15T08:45:50;8.30;99.90
44277;DHT22;29973;43.742;1.236;2024-01-15T08:48:16;8.30;99.90
44277;DHT22;29973;43.742;1.236;2024-01-15T08:50:42;8.20;99.90
44277;DHT22;29973;43.742;1.236;2024-01-15T08:53:07;8.30;99.90
44277;DHT22;29973;43.742;1.236;2024-01-15T08:55:33;8.30;99.90
44277;DHT22;29973;43.742;1.236;2024-01-15T08:57:59;8.30;99.90
44277;DHT22;29973;43.742;1.236;2024-01-15T09:00:25;8.30;99.90
44277;DHT22;29973;43.742;1.236;2024-01-15T09:02:50;8.40;99.90
44277;DHT22;29973;43.742;1.236;2024-01-15T09:05:16;8.40;99.90
44277;DHT22;29973;43.742;1.236;2024-01-15T09:07:42;8.50;99.90
44277;DHT22;29973;43.742;1.236;2024-01-15T09:10:08;8.40;99.90
44277;DHT22;29973;43.742;1.236;2024-01-15T09:12:33;8.40;99.90
44277;DHT22;29973;43.742;1.236;2024-01-15T09:14:59;8.50;99.90
44277;DHT22;29973;43.742;1.236;2024-01-15T09:17:25;8.70;99.90
44277;DHT22;29973;43.742;1.236;2024-01-15T09:19:50;9.00;99.90
44277;DHT22;29973;43.742;1.236;2024-01-15T09:22:16;9.20;99.90
44277;DHT22;29973;43.742;1.236;2024-01-15T09:24:46;9.30;99.90
44277;DHT22;29973;43.742;1.236;2024-01-15T09:27:15;9.50;99.90
44277;DHT22;29973;43.742;1.236;2024-01-15T09:29:41;9.40;99.90
44277;DHT22;29973;43.742;1.236;2024-01-15T09:32:08;9.30;99.90
44277;DHT22;29973;43.742;1.236;2024-01-15T09:34:34;9.30;99.90
44277;DHT22;29973;43.742;1.236;2024-01-15T09:37:00;9.20;99.90
44277;DHT22;29973;43.742;1.236;2024-01-15T09:39:27;9.30;99.90
44277;DHT22;29973;43.742;1.236;2024-01-15T09:41:53;9.50;99.90
44277;DHT22;29973;43.742;1.236;2024-01-15T09:44:19;9.70;99.90
44277;DHT22;29973;43.742;1.236;2024-01-15T09:46:46;9.80;99.90
44277;DHT22;29973;43.742;1.236;2024-01-15T09:49:12;9.70;99.90
44277;DHT22;29973;43.742;1.236;2024-01-15T09:51:38;9.60;99.90
44277;DHT22;29973;43.742;1.236;2024-01-15T09:54:05;9.50;99.90
44277;DHT22;29973;43.742;1.236;2024-01-15T09:56:30;9.20;99.90
44277;DHT22;29973;43.742;1.236;2024-01-15T09:58:57;9.20;99.90
44277;DHT22;29973;43.742;1.236;2024-01-15T10:01:23;9.40;99.90
44277;DHT22;29973;43.742;1.236;2024-01-15T10:03:50;9.40;99.90
44277;DHT22;29973;43.742;1.236;2024-01-15T10:06:17;9.60;99.90
44277;DHT22;29973;43.742;1.236;2024-01-15T10:08:48;9.60;99.90
44277;DHT22;29973;43.742;1.236;2024-01-15T10:11:14;9.50;99.90
44277;DHT22;29973;43.742;1.236;2024-01-15T10:13:40;9.40;99.90
44277;DHT22;29973;43.742;1.236;2024-01-15T10:16:06;9.60;99.90
44277;DHT22;29973;43.742;1.236;2024-01-15T10:18:32;9.60;99.90
44277;DHT22;29973;43.742;1.236;2024-01-15T10:20:58;9.60;99.90
44277;DHT22;29973;43.742;1.236;2024-01-15T10:23:24;9.60;99.90
44277;DHT22;29973;43.742;1.236;2024-01-15T10:25:50;9.60;99.90
44277;DHT22;29973;43.742;1.236;2024-01-15T10:28:19;9.80;99.90
44277;DHT22;29973;43.742;1.236;2024-01-15T10:30:45;9.80;99.90
44277;DHT22;29973;43.742;1.236;2024-01-15T10:33:10;9.90;99.90
44277;DHT22;29973;43.742;1.236;2024-01-15T10:35:38;10.00;99.90
44277;DHT22;29973;43.742;1.236;2024-01-15T10:38:05;10.10;99.90
44277;DHT22;29973;43.742;1.236;2024-01-15T10:40:31;10.20;99.90
44277;DHT22;29973;43.742;1.236;2024-01-15T10:42:57;10.40;99.90
44277;DHT22;29973;43.742;1.236;2024-01-15T10:45:23;10.30;99.90
44277;DHT22;29973;43.742;1.236;2024-01-15T10:47:49;10.10;99.90
44277;DHT22;29973;43.742;1.236;2024-01-15T10:50:14;10.30;99.90
44277;DHT22;29973;43.742;1.236;2024-01-15T10:52:51;10.30;99.90
44277;DHT22;29973;43.742;1.236;2024-01-15T10:55:20;10.30;99.90
44277;DHT22;29973;43.742;1.236;2024-01-15T10:57:48;10.30;99.90
44277;DHT22;29973;43.742;1.236;2024-01-15T11:00:15;10.50;99.90
44277;DHT22;29973;43.742;1.236;2024-01-15T11:02:46;10.50;99.90
44277;DHT22;29973;43.742;1.236;2024-01-15T11:05:14;10.50;99.90
44277;DHT22;29973;43.742;1.236;2024-01-15T11:07:40;10.50;99.90
44277;DHT22;29973;43.742;1.236;2024-01-15T11:10:07;10.50;99.90
44277;DHT22;29973;43.742;1.236;2024-01-15T11:12:35;10.30;99.90
44277;DHT22;29973;43.742;1.236;2024-01-15T11:15:03;10.20;99.90
44277;DHT22;29973;43.742;1.236;2024-01-15T11:17:57;10.50;99.90
44277;DHT22;29973;43.742;1.236;2024-01-15T11:20:24;10.50;99.90
44277;DHT22;29973;43.742;1.236;2024-01-15T11:22:50;10.60;99.90
44277;DHT22;29973;43.742;1.236;2024-01-15T11:25:18;10.60;99.90
44277;DHT22;29973;43.742;1.236;2024-01-15T11:27:49;10.50;99.90
44277;DHT22;29973;43.742;1.236;2024-01-15T11:30:19;10.60;99.90
44277;DHT22;29973;43.742;1.236;2024-01-15T11:32:47;10.90;99.90
44277;DHT22;29973;43.742;1.236;2024-01-15T11:35:14;11.20;99.90
44277;DHT22;29973;43.742;1.236;2024-01-15T11:40:21;11.40;99.90
44277;DHT22;29973;43.742;1.236;2024-01-15T11:42:47;11.30;99.90
44277;DHT22;29973;43.742;1.236;2024-01-15T11:45:15;11.20;99.90
44277;DHT22;29973;43.742;1.236;2024-01-15T11:50:30;11.10;99.90
44277;DHT22;29973;43.742;1.236;2024-01-15T11:53:03;11.10;99.90
44277;DHT22;29973;43.742;1.236;2024-01-15T11:55:38;11.10;99.90
44277;DHT22;29973;43.742;1.236;2024-01-15T11:58:11;11.10;99.90
44277;DHT22;29973;43.742;1.236;2024-01-15T12:00:48;11.20;99.90
44277;DHT22;29973;43.742;1.236;2024-01-15T12:03:15;11.10;99.90
44277;DHT22;29973;43.742;1.236;2024-01-15T12:05:41;11.10;99.90
44277;DHT22;29973;43.742;1.236;2024-01-15T12:08:09;11.10;99.90
44277;DHT22;29973;43.742;1.236;2024-01-15T12:10:38;11.20;99.90
44277;DHT22;29973;43.742;1.236;2024-01-15T12:13:12;11.10;99.90
44277;DHT22;29973;43.742;1.236;2024-01-15T12:15:39;11.00;99.90
44277;DHT22;29973;43.742;1.236;2024-01-15T12:18:10;10.90;99.90
44277;DHT22;29973;43.742;1.236;2024-01-15T12:20:36;10.90;99.90
44277;DHT22;29973;43.742;1.236;2024-01-15T12:23:02;10.70;99.90
44277;DHT22;29973;43.742;1.236;2024-01-15T12:25:35;10.70;99.90
44277;DHT22;29973;43.742;1.236;2024-01-15T12:28:01;10.70;99.90
44277;DHT22;29973;43.742;1.236;2024-01-15T12:30:28;10.90;99.90
44277;DHT22;29973;43.742;1.236;2024-01-15T12:32:54;11.10;99.90
44277;DHT22;29973;43.742;1.236;2024-01-15T12:35:20;11.20;99.90
44277;DHT22;29973;43.742;1.236;2024-01-15T12:37:47;11.30;99.90
44277;DHT22;29973;43.742;1.236;2024-01-15T12:40:13;11.30;99.90
44277;DHT22;29973;43.742;1.236;2024-01-15T12:42:43;11.30;99.90
44277;DHT22;29973;43.742;1.236;2024-01-15T12:45:11;11.50;99.90
44277;DHT22;29973;43.742;1.236;2024-01-15T12:47:38;11.60;99.90
44277;DHT22;29973;43.742;1.236;2024-01-15T12:50:11;11.80;99.90
44277;DHT22;29973;43.742;1.236;2024-01-15T12:52:37;11.90;99.90
44277;DHT22;29973;43.742;1.236;2024-01-15T12:55:06;11.90;99.90
44277;DHT22;29973;43.742;1.236;2024-01-15T12:57:32;11.90;99.90
44277;DHT22;29973;43.742;1.236;2024-01-15T12:59:58;11.80;99.90
44277;DHT22;29973;43.742;1.236;2024-01-15T13:02:24;11.60;99.90
44277;DHT22;29973;43.742;1.236;2024-01-15T13:04:49;11.60;99.90
44277;DHT22;29973;43.742;1.236;2024-01-15T13:07:15;11.50;99.90
44277;DHT22;29973;43.742;1.236;2024-01-15T13:09:41;11.50;99.90
44277;DHT22;29973;43.742;1.236;2024-01-15T13:12:06;11.60;99.90
44277;DHT22;29973;43.742;1.236;2024-01-15T13:14:32;11.60;99.90
44277;DHT22;29973;43.742;1.236;2024-01-15T13:16:59;11.50;99.90
44277;DHT22;29973;43.742;1.236;2024-01-15T13:19:25;11.50;99.90
44277;DHT22;29973;43.742;1.236;2024-01-15T13:21:51;11.60;99.90
44277;DHT22;29973;43.742;1.236;2024-01-15T13:24:17;11.60;99.90
44277;DHT22;29973;43.742;1.236;2024-01-15T13:26:43;11.50;99.90
44277;DHT22;29973;43.742;1.236;2024-01-15T13:29:09;11.40;99.90
44277;DHT22;29973;43.742;1.236;2024-01-15T13:31:34;11.40;99.90
44277;DHT22;29973;43.742;1.236;2024-01-15T13:34:00;11.40;99.90
44277;DHT22;29973;43.742;1.236;2024-01-15T13:36:26;11.30;99.90
44277;DHT22;29973;43.742;1.236;2024-01-15T13:38:53;11.30;99.90
44277;DHT22;29973;43.742;1.236;2024-01-15T13:41:19;11.40;99.90
44277;DHT22;29973;43.742;1.236;2024-01-15T13:43:55;11.50;99.90
44277;DHT22;29973;43.742;1.236;2024-01-15T13:46:24;11.50;99.90
44277;DHT22;29973;43.742;1.236;2024-01-15T13:48:50;11.50;99.90
44277;DHT22;29973;43.742;1.236;2024-01-15T13:51:15;11.40;99.90
44277;DHT22;29973;43.742;1.236;2024-01-15T13:53:42;11.40;99.90
44277;DHT22;29973;43.742;1.236;2024-01-15T13:56:08;11.60;99.90
44277;DHT22;29973;43.742;1.236;2024-01-15T13:58:36;11.70;99.90
44277;DHT22;29973;43.742;1.236;2024-01-15T14:01:01;11.70;99.90
44277;DHT22;29973;43.742;1.236;2024-01-15T14:03:29;11.60;99.90
44277;DHT22;29973;43.742;1.236;2024-01-15T14:05:55;11.60;99.90
44277;DHT22;29973;43.742;1.236;2024-01-15T14:08:21;11.50;99.90
44277;DHT22;29973;43.742;1.236;2024-01-15T14:10:46;11.50;99.90
44277;DHT22;29973;43.742;1.236;2024-01-15T14:13:12;11.50;99.90
44277;DHT22;29973;43.742;1.236;2024-01-15T14:15:38;11.50;99.90
44277;DHT22;29973;43.742;1.236;2024-01-15T14:18:03;11.50;99.90
44277;DHT22;29973;43.742;1.236;2024-01-15T14:20:29;11.50;99.90
44277;DHT22;29973;43.742;1.236;2024-01-15T14:22:55;11.60;99.90
44277;DHT22;29973;43.742;1.236;2024-01-15T14:25:21;11.60;99.90
44277;DHT22;29973;43.742;1.236;2024-01-15T14:27:47;11.50;99.90
44277;DHT22;29973;43.742;1.236;2024-01-15T14:30:13;11.50;99.90
44277;DHT22;29973;43.742;1.236;2024-01-15T14:32:41;11.40;99.90
44277;DHT22;29973;43.742;1.236;2024-01-15T14:35:07;11.40;99.90
44277;DHT22;29973;43.742;1.236;2024-01-15T14:37:36;11.40;99.90
44277;DHT22;29973;43.742;1.236;2024-01-15T14:40:02;11.20;99.90
44277;DHT22;29973;43.742;1.236;2024-01-15T14:42:29;11.20;99.90
44277;DHT22;29973;43.742;1.236;2024-01-15T14:44:55;11.10;99.90
44277;DHT22;29973;43.742;1.236;2024-01-15T14:47:20;11.10;99.90
44277;DHT22;29973;43.742;1.236;2024-01-15T14:49:49;11.00;99.90
44277;DHT22;29973;43.742;1.236;2024-01-15T14:52:15;11.00;99.90
44277;DHT22;29973;43.742;1.236;2024-01-15T14:54:41;11.00;99.90
44277;DHT22;29973;43.742;1.236;2024-01-15T14:57:07;11.00;99.90
44277;DHT22;29973;43.742;1.236;2024-01-15T14:59:32;10.90;99.90
44277;DHT22;29973;43.742;1.236;2024-01-15T15:01:58;10.90;99.90
44277;DHT22;29973;43.742;1.236;2024-01-15T15:04:24;10.90;99.90
44277;DHT22;29973;43.742;1.236;2024-01-15T15:06:49;10.90;99.90
44277;DHT22;29973;43.742;1.236;2024-01-15T15:09:15;10.80;99.90
44277;DHT22;29973;43.742;1.236;2024-01-15T15:11:41;10.80;99.90
44277;DHT22;29973;43.742;1.236;2024-01-15T15:14:06;10.80;99.90
44277;DHT22;29973;43.742;1.236;2024-01-15T15:16:32;10.80;99.90
44277;DHT22;29973;43.742;1.236;2024-01-15T15:18:58;10.70;99.90
44277;DHT22;29973;43.742;1.236;2024-01-15T15:21:24;10.80;99.90
44277;DHT22;29973;43.742;1.236;2024-01-15T15:23:49;10.80;99.90
44277;DHT22;29973;43.742;1.236;2024-01-15T15:26:15;10.80;99.90
44277;DHT22;29973;43.742;1.236;2024-01-15T15:28:41;10.80;99.90
44277;DHT22;29973;43.742;1.236;2024-01-15T15:31:07;10.80;99.90
44277;DHT22;29973;43.742;1.236;2024-01-15T15:33:38;10.80;99.90
44277;DHT22;29973;43.742;1.236;2024-01-15T15:36:04;10.80;99.90
44277;DHT22;29973;43.742;1.236;2024-01-15T15:38:34;10.80;99.90
44277;DHT22;29973;43.742;1.236;2024-01-15T15:41:00;10.60;99.90